createdAt,value
2022-08-05T00:03:25.352Z,59.87
2022-08-05T00:08:35.258Z,54.32
2022-08-05T00:14:02.176Z,56.24
2022-08-05T00:19:24.893Z,57.84
2022-08-05T00:25:12.787Z,58.86
2022-08-05T00:30:21.273Z,60.00
2022-08-05T00:35:37.537Z,60.80
2022-08-05T00:41:01.420Z,67.27
2022-08-05T00:46:03.849Z,59.87
2022-08-05T00:51:08.856Z,55.28
2022-08-05T00:56:31.352Z,57.72
2022-08-05T01:06:51.804Z,60.25
2022-08-05T01:12:09.111Z,61.12
2022-08-05T01:17:21.527Z,67.82
2022-08-05T01:22:28.125Z,61.24
2022-08-05T01:28:07.068Z,55.46
2022-08-05T01:33:12.477Z,57.30
2022-08-05T01:38:43.827Z,58.87
2022-08-05T01:43:49.896Z,60.91
2022-08-05T01:48:54.545Z,66.82
2022-08-05T01:53:59.466Z,60.77
2022-08-05T01:59:16.384Z,55.26
2022-08-05T02:04:21.008Z,57.13
2022-08-05T02:09:45.750Z,59.03
2022-08-05T02:15:12.486Z,60.49
2022-08-05T02:20:22.172Z,66.93
2022-08-05T02:25:33.089Z,60.69
2022-08-05T02:31:08.183Z,55.55
2022-08-05T02:36:20.603Z,57.78
2022-08-05T02:46:53.340Z,60.87
2022-08-05T02:52:06.270Z,67.48
2022-08-05T02:58:20.022Z,61.16
2022-08-05T03:02:52.810Z,56.19
2022-08-05T03:08:01.430Z,58.60
2022-08-05T03:13:16.572Z,60.79
2022-08-05T03:18:24.726Z,61.38
2022-08-05T03:23:34.637Z,67.91
2022-08-05T03:28:37.179Z,61.39
2022-08-05T03:33:51.310Z,56.07
2022-08-05T03:38:55.715Z,58.03
2022-08-05T03:44:08.533Z,60.46
2022-08-05T03:49:14.883Z,65.72
2022-08-05T03:56:03.615Z,59.28
2022-08-05T04:00:15.546Z,55.96
2022-08-05T04:05:23.133Z,58.46
2022-08-05T04:10:28.395Z,59.50
2022-08-05T04:16:03.362Z,61.05
2022-08-05T04:21:07.251Z,65.73
2022-08-05T04:26:18.638Z,58.35
2022-08-05T04:31:21.315Z,55.66
2022-08-05T04:36:49.827Z,57.67
2022-08-05T04:41:52.918Z,59.00
2022-08-05T04:46:59.282Z,60.64
2022-08-05T04:52:01.731Z,61.30
2022-08-05T04:57:04.246Z,65.53
2022-08-05T05:02:37.136Z,57.86
2022-08-05T05:07:35.608Z,55.19
2022-08-05T05:12:47.331Z,56.89
2022-08-05T05:17:56.335Z,58.14
2022-08-05T05:23:08.380Z,58.17
2022-08-05T05:28:25.317Z,58.89
2022-08-05T05:33:28.013Z,59.01
2022-08-05T05:39:00.172Z,59.70
2022-08-05T05:44:02.904Z,59.63
2022-08-05T05:49:28.847Z,59.41
2022-08-05T05:54:50.893Z,59.23
2022-08-05T06:00:01.330Z,59.18
2022-08-05T06:05:16.604Z,58.76
2022-08-05T06:10:52.558Z,58.17
2022-08-05T06:21:08.027Z,57.51
2022-08-05T06:26:25.138Z,56.87
2022-08-05T06:31:41.900Z,56.45
2022-08-05T06:36:57.657Z,55.71
2022-08-05T06:42:07.496Z,54.84
2022-08-05T06:47:30.265Z,54.70
2022-08-05T06:52:38.018Z,53.99
2022-08-05T06:58:03.578Z,53.39
2022-08-05T07:03:05.288Z,52.38
2022-08-05T07:08:12.111Z,52.38
2022-08-05T07:13:58.515Z,51.10
2022-08-05T07:19:02.864Z,50.81
2022-08-05T07:24:12.021Z,50.20
2022-08-05T07:29:15.910Z,50.80
2022-08-05T07:34:21.275Z,49.55
2022-08-05T07:40:04.463Z,48.93
2022-08-05T07:44:52.513Z,48.49
2022-08-05T07:49:54.898Z,47.67
2022-08-05T07:54:57.358Z,47.22
2022-08-05T08:00:35.386Z,47.11
2022-08-05T08:05:49.698Z,45.89
2022-08-05T08:10:55.410Z,45.83
2022-08-05T08:16:35.545Z,45.17
2022-08-05T08:21:20.581Z,44.12
2022-08-05T08:26:59.959Z,43.88
2022-08-05T08:32:45.577Z,43.07
2022-08-05T08:38:05.627Z,42.22
2022-08-05T08:45:04.465Z,42.56
2022-08-05T08:49:03.019Z,41.79
2022-08-05T08:53:58.799Z,41.45
2022-08-05T08:59:14.989Z,41.53
2022-08-05T09:04:30.455Z,40.98
2022-08-05T09:09:40.754Z,40.74
2022-08-05T09:14:58.676Z,40.83
2022-08-05T09:20:05.714Z,40.06
2022-08-05T09:25:24.574Z,39.95
2022-08-05T09:31:22.459Z,39.34
2022-08-05T09:36:59.716Z,39.03
2022-08-05T09:42:07.756Z,39.17
2022-08-05T09:52:29.104Z,37.84
2022-08-05T09:57:39.513Z,36.47
2022-08-05T10:02:45.058Z,36.44
2022-08-05T10:08:35.741Z,36.05
2022-08-05T10:13:44.053Z,36.31
2022-08-05T10:18:53.168Z,36.35
2022-08-05T10:24:15.051Z,36.27
2022-08-05T10:29:24.147Z,36.00
2022-08-05T10:34:45.248Z,35.85
2022-08-05T10:40:03.308Z,36.02
2022-08-05T10:45:40.044Z,34.87
2022-08-05T10:51:03.338Z,34.77
2022-08-05T10:56:21.405Z,34.60
2022-08-05T11:02:03.650Z,34.24
2022-08-05T11:07:11.258Z,34.38
2022-08-05T11:12:54.345Z,34.11
2022-08-05T11:18:27.292Z,34.14
2022-08-05T11:24:04.145Z,32.84
2022-08-05T11:29:21.900Z,32.57
2022-08-05T11:34:39.020Z,32.89
2022-08-05T11:40:02.845Z,32.24
2022-08-05T11:50:38.399Z,32.41
2022-08-05T11:56:01.248Z,31.92
2022-08-05T12:01:08.321Z,32.35
2022-08-05T12:06:16.672Z,31.59
2022-08-05T12:11:50.404Z,30.93
2022-08-05T12:18:03.077Z,31.04
2022-08-05T12:22:36.788Z,31.44
2022-08-05T12:28:03.326Z,31.15
2022-08-05T12:33:07.247Z,30.44
2022-08-05T12:38:30.196Z,30.35
2022-08-05T12:43:34.529Z,30.31
2022-08-05T12:48:42.617Z,30.87
2022-08-05T12:53:47.364Z,30.23
2022-08-05T12:59:21.094Z,30.09
2022-08-05T13:04:32.509Z,30.59
2022-08-05T13:09:45.893Z,30.67
2022-08-05T13:15:06.713Z,30.55
2022-08-05T13:20:40.964Z,30.59
2022-08-05T13:26:03.431Z,30.67
2022-08-05T13:31:14.438Z,30.24
2022-08-05T13:36:18.353Z,30.55
2022-08-05T13:41:20.936Z,29.89
2022-08-05T13:47:04.807Z,30.01
2022-08-05T13:52:15.794Z,29.82
2022-08-05T13:57:26.480Z,29.92
2022-08-05T14:02:55.182Z,29.73
2022-08-05T14:08:05.853Z,29.79
2022-08-05T14:13:11.072Z,30.40
2022-08-05T14:18:48.353Z,31.21
2022-08-05T14:23:57.157Z,31.49
2022-08-05T14:29:03.604Z,31.39
2022-08-05T14:34:06.031Z,30.35
2022-08-05T14:39:14.555Z,29.78
2022-08-05T14:44:27.874Z,28.78
2022-08-05T14:49:56.759Z,28.96
2022-08-05T14:55:02.560Z,28.81
2022-08-05T15:00:29.435Z,28.67
2022-08-05T15:06:12.948Z,29.31
2022-08-05T15:10:59.505Z,29.49
2022-08-05T15:16:05.946Z,29.31
2022-08-05T15:21:09.683Z,27.67
2022-08-05T15:26:12.137Z,26.16
2022-08-05T15:31:17.629Z,26.04
2022-08-05T15:43:45.843Z,23.23
2022-08-05T15:48:52.493Z,21.87
2022-08-05T15:54:34.476Z,21.91
2022-08-05T15:59:38.173Z,21.82
2022-08-05T16:05:11.239Z,21.97
2022-08-05T16:10:17.334Z,21.65
2022-08-05T16:15:35.701Z,21.89
2022-08-05T16:20:38.120Z,22.54
2022-08-05T16:26:11.011Z,23.54
2022-08-05T16:31:22.176Z,25.41
2022-08-05T16:36:44.589Z,27.34
2022-08-05T16:42:27.626Z,28.83
2022-08-05T16:47:28.918Z,30.64
2022-08-05T16:52:36.643Z,32.22
2022-08-05T16:57:59.883Z,33.54
2022-08-05T17:03:04.656Z,35.02
2022-08-05T17:13:37.658Z,37.03
2022-08-05T17:18:43.854Z,38.04
2022-08-05T17:24:04.370Z,38.50
2022-08-05T17:29:11.528Z,39.57
2022-08-05T17:34:17.847Z,40.28
2022-08-05T17:40:26.296Z,41.95
2022-08-05T17:45:38.465Z,42.82
2022-08-05T17:50:41.632Z,43.38
2022-08-05T17:55:44.399Z,44.06
2022-08-05T18:00:50.508Z,44.70
2022-08-05T18:05:56.515Z,45.09
2022-08-05T18:11:23.701Z,45.43
2022-08-05T18:16:51.503Z,45.59
2022-08-05T18:22:08.499Z,46.30
2022-08-05T18:27:18.728Z,46.45
2022-08-05T18:32:28.255Z,47.13
2022-08-05T18:37:40.305Z,48.02
2022-08-05T18:42:52.227Z,48.98
2022-08-05T18:47:56.429Z,49.83
2022-08-05T18:52:59.641Z,51.41
2022-08-05T18:58:03.665Z,51.82
2022-08-05T19:03:55.650Z,52.53
2022-08-05T19:09:08.434Z,52.32
2022-08-05T19:14:59.594Z,53.09
2022-08-05T19:19:37.288Z,54.19
2022-08-05T19:27:44.815Z,55.69
2022-08-05T19:32:47.485Z,56.40
2022-08-05T19:38:06.082Z,56.82
2022-08-05T19:43:09.838Z,58.85
2022-08-05T19:48:48.446Z,57.95
2022-08-05T19:54:05.303Z,60.74
2022-08-05T19:59:51.097Z,67.98
2022-08-05T20:04:34.781Z,60.89
2022-08-05T20:09:54.788Z,54.53
2022-08-05T20:15:13.602Z,55.69
2022-08-05T20:20:19.081Z,57.51
2022-08-05T20:25:24.699Z,58.53
2022-08-05T20:31:03.711Z,59.49
2022-08-05T20:36:22.364Z,59.76
2022-08-05T20:41:27.028Z,59.68
2022-08-05T20:50:05.430Z,60.42
2022-08-05T20:55:55.097Z,60.38
2022-08-05T21:00:51.888Z,60.52
2022-08-05T21:05:57.365Z,67.92
2022-08-05T21:11:01.641Z,62.29
2022-08-05T21:16:30.810Z,55.36
2022-08-05T21:21:44.232Z,56.18
2022-08-05T21:26:58.306Z,56.87
2022-08-05T21:32:02.666Z,57.75
2022-08-05T21:37:13.836Z,59.59
2022-08-05T21:42:40.881Z,66.42
2022-08-05T21:47:56.355Z,60.44
2022-08-05T21:53:04.549Z,55.51
2022-08-05T21:58:24.935Z,58.91
2022-08-05T22:04:14.337Z,61.42
2022-08-05T22:09:21.110Z,61.81
2022-08-05T22:14:37.324Z,58.16
2022-08-05T22:20:02.501Z,61.49
2022-08-05T22:25:31.025Z,60.69
2022-08-05T22:30:56.810Z,60.61
2022-08-05T22:36:23.992Z,62.13
2022-08-05T22:42:09.591Z,59.38
2022-08-05T22:52:47.314Z,58.73
2022-08-05T22:57:57.281Z,61.91
2022-08-05T23:03:00.995Z,61.07
2022-08-05T23:08:12.154Z,60.33
2022-08-05T23:13:16.683Z,62.96
2022-08-05T23:18:25.546Z,59.73
2022-08-05T23:23:39.179Z,63.51
2022-08-05T23:28:43.259Z,61.10
2022-08-05T23:34:05.323Z,58.79
2022-08-05T23:39:08.802Z,63.66
2022-08-05T23:44:11.345Z,60.40
2022-08-05T23:56:32.800Z,61.68
